Thunder radar more information blitzortung!


Radar de pluja more information rain snow radar


Visita la nostra xarxa de llocs de meteo:

Template documentation
and downloads

And another site



No particular awareness of the weather is required.    There are no Weather-warnings

Pagina Historial Weather Underground text

Diari Resum Juliol 7, 2017 Unitats:  Tant    Imperial   Mètric
« Previous Dia
SegĂźent Dia »
Diari Setmana Mensual Anual Personalitzada
  Maxima: Minima: Media:
Temperatura: 91.9 °F /  33.3 °C 68.7 °F /  20.4 °C 84.6 °F /  29.2 °C
Punt de rosada: 63.7 °F /  17.6 °C 48.7 °F /  9.3 °C 54.5 °F /  12.5 °C
Humitat: 69 % 26 % 38 %
Wind Speed: 12.7 mph /  20.4 km/h - 5.3 mph /  8.6 km/h
RĂ fegues de vent: 12.7 mph /  20.4 km/h - -
Vent:- - East
Pression baro: 30.1 in /  1017.8 hPa 29.9 in /  1012.8 hPa -
Precipitacions: 0 in /  0.0 mm    
Historical Graphs
 
 
Dades de taula per Juliol 7, 2017
Temps Temperatura Punt de rosada Pression baro Vent Wind Speed RĂ fegues de vent Humitat Rainfall Rate (Hourly)
00:04 75.7 °F /  24.3 °C 63.7 °F /  17.6 °C 30 in /  1016.8 hPa NNE 3.1 mph /  5.0 km/h 3.1 mph /  5.0 km/h 66 % 0 in /  0.0 mm
00:05 70.5 °F /  21.4 °C 59.9 °F /  15.5 °C 30 in /  1014.8 hPa NE 1 mph /  1.6 km/h 3 mph /  4.8 km/h 69 % 0 in /  0.0 mm
00:15 70.2 °F /  21.2 °C 59.5 °F /  15.3 °C 30 in /  1015.8 hPa Calm     69 % 0 in /  0.0 mm
00:25 70.2 °F /  21.2 °C 59.5 °F /  15.3 °C 30 in /  1015.8 hPa Calm     69 % 0 in /  0.0 mm
00:35 70 °F /  21.1 °C 59.4 °F /  15.2 °C 30 in /  1015.8 hPa Calm     69 % 0 in /  0.0 mm
00:45 69.8 °F /  21.0 °C 58.8 °F /  14.9 °C 30 in /  1015.8 hPa Calm   2 mph /  3.2 km/h 68 % 0 in /  0.0 mm
00:55 70 °F /  21.1 °C 58.5 °F /  14.7 °C 30 in /  1015.8 hPa Calm   1 mph /  1.6 km/h 67 % 0 in /  0.0 mm
01:05 69.8 °F /  21.0 °C 58.3 °F /  14.6 °C 30 in /  1016.8 hPa Calm   1 mph /  1.6 km/h 67 % 0 in /  0.0 mm
01:15 69.4 °F /  20.8 °C 58.5 °F /  14.7 °C 30 in /  1016.8 hPa WNW 1 mph /  1.6 km/h 1 mph /  1.6 km/h 68 % 0 in /  0.0 mm
01:25 69.1 °F /  20.6 °C 58.1 °F /  14.5 °C 30 in /  1016.8 hPa West 1 mph /  1.6 km/h 2 mph /  3.2 km/h 68 % 0 in /  0.0 mm
01:35 68.9 °F /  20.5 °C 57.9 °F /  14.4 °C 30 in /  1016.8 hPa Calm   1 mph /  1.6 km/h 68 % 0 in /  0.0 mm
01:45 68.9 °F /  20.5 °C 57.9 °F /  14.4 °C 30.1 in /  1017.8 hPa Calm     68 % 0 in /  0.0 mm
01:55 68.7 °F /  20.4 °C 57.7 °F /  14.3 °C 30.1 in /  1017.8 hPa West 2 mph /  3.2 km/h 2 mph /  3.2 km/h 68 % 0 in /  0.0 mm
02:05 68.7 °F /  20.4 °C 57.7 °F /  14.3 °C 30.1 in /  1017.8 hPa Calm   2 mph /  3.2 km/h 68 % 0 in /  0.0 mm
02:15 69.4 °F /  20.8 °C 58.8 °F /  14.9 °C 30 in /  1016.8 hPa WSW 1 mph /  1.6 km/h 2 mph /  3.2 km/h 69 % 0 in /  0.0 mm
02:25 70.2 °F /  21.2 °C 59.2 °F /  15.1 °C 30 in /  1016.8 hPa NE 1 mph /  1.6 km/h 2 mph /  3.2 km/h 68 % 0 in /  0.0 mm
02:35 70.5 °F /  21.4 °C 59 °F /  15.0 °C 30.1 in /  1017.8 hPa NE 1 mph /  1.6 km/h 2 mph /  3.2 km/h 67 % 0 in /  0.0 mm
02:45 71.4 °F /  21.9 °C 59.5 °F /  15.3 °C 30.1 in /  1017.8 hPa NE 1 mph /  1.6 km/h 3 mph /  4.8 km/h 66 % 0 in /  0.0 mm
02:55 72 °F /  22.2 °C 59.5 °F /  15.3 °C 30.1 in /  1017.8 hPa NE 1 mph /  1.6 km/h 1 mph /  1.6 km/h 65 % 0 in /  0.0 mm
03:05 73.4 °F /  23.0 °C 60.1 °F /  15.6 °C 30.1 in /  1017.8 hPa ESE 3 mph /  4.8 km/h 3 mph /  4.8 km/h 63 % 0 in /  0.0 mm
03:15 73.4 °F /  23.0 °C 59.2 °F /  15.1 °C 30 in /  1016.8 hPa East 3 mph /  4.8 km/h 3 mph /  4.8 km/h 61 % 0 in /  0.0 mm
03:25 73.2 °F /  22.9 °C 59 °F /  15.0 °C 30 in /  1016.8 hPa NE 3 mph /  4.8 km/h 3 mph /  4.8 km/h 61 % 0 in /  0.0 mm
03:35 73.2 °F /  22.9 °C 58.5 °F /  14.7 °C 30 in /  1016.8 hPa NNE 5 mph /  8.0 km/h 5 mph /  8.0 km/h 60 % 0 in /  0.0 mm
03:45 73.2 °F /  22.9 °C 57.9 °F /  14.4 °C 30 in /  1016.8 hPa NNE 3 mph /  4.8 km/h 5 mph /  8.0 km/h 59 % 0 in /  0.0 mm
03:55 73.4 °F /  23.0 °C 58.3 °F /  14.6 °C 30 in /  1016.8 hPa NE 2 mph /  3.2 km/h 3 mph /  4.8 km/h 59 % 0 in /  0.0 mm
04:05 74.8 °F /  23.8 °C 59.2 °F /  15.1 °C 30.1 in /  1017.8 hPa NNE 3 mph /  4.8 km/h 4 mph /  6.4 km/h 58 % 0 in /  0.0 mm
04:15 75.6 °F /  24.2 °C 58.8 °F /  14.9 °C 30 in /  1016.8 hPa NNE 3 mph /  4.8 km/h 4 mph /  6.4 km/h 56 % 0 in /  0.0 mm
04:25 77 °F /  25.0 °C 59.2 °F /  15.1 °C 30 in /  1016.8 hPa ENE 1 mph /  1.6 km/h 4 mph /  6.4 km/h 54 % 0 in /  0.0 mm
04:35 78.3 °F /  25.7 °C 59.7 °F /  15.4 °C 30 in /  1016.8 hPa East 1 mph /  1.6 km/h 3 mph /  4.8 km/h 53 % 0 in /  0.0 mm
04:45 79.5 °F /  26.4 °C 60.4 °F /  15.8 °C 30 in /  1016.8 hPa ENE 2 mph /  3.2 km/h 4 mph /  6.4 km/h 52 % 0 in /  0.0 mm
04:55 80.4 °F /  26.9 °C 60.6 °F /  15.9 °C 30 in /  1016.8 hPa East 3 mph /  4.8 km/h 4 mph /  6.4 km/h 51 % 0 in /  0.0 mm
05:05 81.3 °F /  27.4 °C 59.7 °F /  15.4 °C 30.1 in /  1017.8 hPa ESE 3 mph /  4.8 km/h 4 mph /  6.4 km/h 48 % 0 in /  0.0 mm
05:15 81.1 °F /  27.3 °C 59.5 °F /  15.3 °C 30 in /  1016.8 hPa East 3 mph /  4.8 km/h 4 mph /  6.4 km/h 48 % 0 in /  0.0 mm
05:25 81.9 °F /  27.7 °C 59.2 °F /  15.1 °C 30 in /  1016.8 hPa ENE 2 mph /  3.2 km/h 4 mph /  6.4 km/h 46 % 0 in /  0.0 mm
05:35 82.9 °F /  28.3 °C 59.4 °F /  15.2 °C 30 in /  1016.8 hPa ENE 2 mph /  3.2 km/h 3 mph /  4.8 km/h 45 % 0 in /  0.0 mm
10:36 82.8 °F /  28.2 °C 59.9 °F /  15.5 °C 30 in /  1016.8 hPa NNE 3.5 mph /  5.6 km/h 3.5 mph /  5.6 km/h 46 % 0 in /  0.0 mm
10:41 83.8 °F /  28.8 °C 60.3 °F /  15.7 °C 30 in /  1016.8 hPa NE 3.5 mph /  5.6 km/h 3.5 mph /  5.6 km/h 45 % 0 in /  0.0 mm
10:46 83.8 °F /  28.8 °C 60.3 °F /  15.7 °C 30 in /  1016.8 hPa East 3.5 mph /  5.6 km/h 3.5 mph /  5.6 km/h 45 % 0 in /  0.0 mm
10:51 84.6 °F /  29.2 °C 60.3 °F /  15.7 °C 30 in /  1016.8 hPa ENE 2.3 mph /  3.7 km/h 2.3 mph /  3.7 km/h 44 % 0 in /  0.0 mm
10:56 84.9 °F /  29.4 °C 60.6 °F /  15.9 °C 30 in /  1016.8 hPa NE 3.5 mph /  5.6 km/h 3.5 mph /  5.6 km/h 44 % 0 in /  0.0 mm
11:01 85.8 °F /  29.9 °C 60.6 °F /  15.9 °C 30 in /  1016.8 hPa ENE 2.3 mph /  3.7 km/h 2.3 mph /  3.7 km/h 43 % 0 in /  0.0 mm
11:02 85.8 °F /  29.9 °C 60.6 °F /  15.9 °C 30 in /  1016.8 hPa ENE 2.3 mph /  3.7 km/h 2.3 mph /  3.7 km/h 43 % 0 in /  0.0 mm
11:07 86.2 °F /  30.1 °C 59.7 °F /  15.4 °C 30 in /  1016.8 hPa SSE 5.8 mph /  9.3 km/h 5.8 mph /  9.3 km/h 41 % 0 in /  0.0 mm
11:12 86 °F /  30.0 °C 58.8 °F /  14.9 °C 30 in /  1016.8 hPa ENE 8.1 mph /  13.0 km/h 8.1 mph /  13.0 km/h 40 % 0 in /  0.0 mm
11:17 86.7 °F /  30.4 °C 59.5 °F /  15.3 °C 30 in /  1016.8 hPa East 6 mph /  9.7 km/h 6 mph /  9.7 km/h 40 % 0 in /  0.0 mm
11:22 86.9 °F /  30.5 °C 59.7 °F /  15.4 °C 30 in /  1016.8 hPa ENE 6 mph /  9.7 km/h 6 mph /  9.7 km/h 40 % 0 in /  0.0 mm
11:27 86.9 °F /  30.5 °C 59.7 °F /  15.4 °C 30 in /  1015.8 hPa ESE 5.8 mph /  9.3 km/h 5.8 mph /  9.3 km/h 40 % 0 in /  0.0 mm
11:32 88 °F /  31.1 °C 59.2 °F /  15.1 °C 30 in /  1015.8 hPa ENE 8.7 mph /  14.0 km/h 8.7 mph /  14.0 km/h 38 % 0 in /  0.0 mm
11:37 87.6 °F /  30.9 °C 58.1 °F /  14.5 °C 30 in /  1015.8 hPa ESE 9.2 mph /  14.8 km/h 9.2 mph /  14.8 km/h 37 % 0 in /  0.0 mm
11:42 87.8 °F /  31.0 °C 57.6 °F /  14.2 °C 30 in /  1016.8 hPa ESE 8.1 mph /  13.0 km/h 8.1 mph /  13.0 km/h 36 % 0 in /  0.0 mm
11:47 88.5 °F /  31.4 °C 58.8 °F /  14.9 °C 30 in /  1016.8 hPa SE 3.6 mph /  5.8 km/h 3.8 mph /  6.1 km/h 37 % 0 in /  0.0 mm
11:52 88.5 °F /  31.4 °C 58.3 °F /  14.6 °C 30 in /  1016.8 hPa East 5.9 mph /  9.5 km/h 5.9 mph /  9.5 km/h 36 % 0 in /  0.0 mm
11:57 89.1 °F /  31.7 °C 58.6 °F /  14.8 °C 30 in /  1016.8 hPa NE 5.8 mph /  9.3 km/h 6 mph /  9.7 km/h 36 % 0 in /  0.0 mm
12:02 89.2 °F /  31.8 °C 57.9 °F /  14.4 °C 30 in /  1016.8 hPa East 6.4 mph /  10.3 km/h 6.4 mph /  10.3 km/h 35 % 0 in /  0.0 mm
12:07 88.5 °F /  31.4 °C 56.7 °F /  13.7 °C 30 in /  1016.8 hPa ESE 6.9 mph /  11.1 km/h 6.9 mph /  11.1 km/h 34 % 0 in /  0.0 mm
12:12 88.5 °F /  31.4 °C 56.7 °F /  13.7 °C 30 in /  1016.8 hPa East 9.2 mph /  14.8 km/h 9.2 mph /  14.8 km/h 34 % 0 in /  0.0 mm
12:17 89.1 °F /  31.7 °C 55.4 °F /  13.0 °C 30 in /  1016.8 hPa ESE 8.1 mph /  13.0 km/h 8.1 mph /  13.0 km/h 32 % 0 in /  0.0 mm
12:22 89.1 °F /  31.7 °C 54.5 °F /  12.5 °C 30 in /  1016.8 hPa ESE 10 mph /  16.1 km/h 10 mph /  16.1 km/h 31 % 0 in /  0.0 mm
12:27 89.8 °F /  32.1 °C 55.9 °F /  13.3 °C 30 in /  1015.8 hPa East 6.9 mph /  11.1 km/h 6.9 mph /  11.1 km/h 32 % 0 in /  0.0 mm
12:32 90.3 °F /  32.4 °C 56.5 °F /  13.6 °C 30 in /  1015.8 hPa ESE 8.1 mph /  13.0 km/h 8.1 mph /  13.0 km/h 32 % 0 in /  0.0 mm
12:37 90.1 °F /  32.3 °C 56.3 °F /  13.5 °C 30 in /  1015.8 hPa East 8.1 mph /  13.0 km/h 8.1 mph /  13.0 km/h 32 % 0 in /  0.0 mm
12:42 90.7 °F /  32.6 °C 56.8 °F /  13.8 °C 30 in /  1015.8 hPa ESE 9 mph /  14.5 km/h 9 mph /  14.5 km/h 32 % 0 in /  0.0 mm
12:47 90.9 °F /  32.7 °C 56.8 °F /  13.8 °C 30 in /  1015.8 hPa ENE 9.2 mph /  14.8 km/h 9.2 mph /  14.8 km/h 32 % 0 in /  0.0 mm
12:52 90.9 °F /  32.7 °C 55.9 °F /  13.3 °C 30 in /  1015.8 hPa East 10.4 mph /  16.7 km/h 10.4 mph /  16.7 km/h 31 % 0 in /  0.0 mm
12:57 91 °F /  32.8 °C 55.2 °F /  12.9 °C 30 in /  1015.8 hPa ENE 12.7 mph /  20.4 km/h 12.7 mph /  20.4 km/h 30 % 0 in /  0.0 mm
13:02 91.2 °F /  32.9 °C 55.6 °F /  13.1 °C 30 in /  1015.8 hPa East 10.9 mph /  17.5 km/h 10.9 mph /  17.5 km/h 30 % 0 in /  0.0 mm
13:07 91 °F /  32.8 °C 56.1 °F /  13.4 °C 30 in /  1015.8 hPa ESE 9.2 mph /  14.8 km/h 9.2 mph /  14.8 km/h 31 % 0 in /  0.0 mm
13:12 90.9 °F /  32.7 °C 55.9 °F /  13.3 °C 30 in /  1015.8 hPa SE 8.1 mph /  13.0 km/h 8.1 mph /  13.0 km/h 31 % 0 in /  0.0 mm
13:17 90.1 °F /  32.3 °C 55.4 °F /  13.0 °C 30 in /  1015.8 hPa ESE 10 mph /  16.1 km/h 10 mph /  16.1 km/h 31 % 0 in /  0.0 mm
13:22 90.9 °F /  32.7 °C 55.9 °F /  13.3 °C 30 in /  1015.8 hPa SE 9.4 mph /  15.1 km/h 9.4 mph /  15.1 km/h 31 % 0 in /  0.0 mm
13:27 90.5 °F /  32.5 °C 54.9 °F /  12.7 °C 30 in /  1015.8 hPa NE 12.7 mph /  20.4 km/h 12.7 mph /  20.4 km/h 30 % 0 in /  0.0 mm
13:32 90.5 °F /  32.5 °C 54.9 °F /  12.7 °C 30 in /  1015.8 hPa East 10.4 mph /  16.7 km/h 10.4 mph /  16.7 km/h 30 % 0 in /  0.0 mm
13:37 90.7 °F /  32.6 °C 55.9 °F /  13.3 °C 30 in /  1015.8 hPa ESE 4.6 mph /  7.4 km/h 4.7 mph /  7.6 km/h 31 % 0 in /  0.0 mm
13:42 90.3 °F /  32.4 °C 54.7 °F /  12.6 °C 30 in /  1015.8 hPa SSE 11.5 mph /  18.5 km/h 11.5 mph /  18.5 km/h 30 % 0 in /  0.0 mm
13:47 90.5 °F /  32.5 °C 54 °F /  12.2 °C 30 in /  1015.8 hPa NE 9.2 mph /  14.8 km/h 9.2 mph /  14.8 km/h 29 % 0 in /  0.0 mm
13:52 90.7 °F /  32.6 °C 54.1 °F /  12.3 °C 30 in /  1015.8 hPa ESE 6.2 mph /  10.0 km/h 6.2 mph /  10.0 km/h 29 % 0 in /  0.0 mm
13:57 90.7 °F /  32.6 °C 54.1 °F /  12.3 °C 30 in /  1015.8 hPa ESE 10.4 mph /  16.7 km/h 10.4 mph /  16.7 km/h 29 % 0 in /  0.0 mm
14:02 91 °F /  32.8 °C 54.3 °F /  12.4 °C 30 in /  1015.8 hPa SE 6.9 mph /  11.1 km/h 6.9 mph /  11.1 km/h 29 % 0 in /  0.0 mm
14:07 90.9 °F /  32.7 °C 53.2 °F /  11.8 °C 30 in /  1015.8 hPa ENE 8.1 mph /  13.0 km/h 8.1 mph /  13.0 km/h 28 % 0 in /  0.0 mm
14:12 91.4 °F /  33.0 °C 53.8 °F /  12.1 °C 30 in /  1015.8 hPa ENE 9.2 mph /  14.8 km/h 9.2 mph /  14.8 km/h 28 % 0 in /  0.0 mm
14:17 91.8 °F /  33.2 °C 54 °F /  12.2 °C 30 in /  1015.8 hPa ENE 9.2 mph /  14.8 km/h 9.2 mph /  14.8 km/h 28 % 0 in /  0.0 mm
14:22 91.6 °F /  33.1 °C 54 °F /  12.2 °C 30 in /  1015.8 hPa East 7.4 mph /  11.9 km/h 7.4 mph /  11.9 km/h 28 % 0 in /  0.0 mm
14:27 91.8 °F /  33.2 °C 54 °F /  12.2 °C 30 in /  1015.8 hPa East 11.5 mph /  18.5 km/h 11.5 mph /  18.5 km/h 28 % 0 in /  0.0 mm
14:32 91 °F /  32.8 °C 53.4 °F /  11.9 °C 30 in /  1015.8 hPa East 8.1 mph /  13.0 km/h 8.1 mph /  13.0 km/h 28 % 0 in /  0.0 mm
14:37 90.9 °F /  32.7 °C 53.2 °F /  11.8 °C 30 in /  1015.8 hPa ESE 9.2 mph /  14.8 km/h 9.2 mph /  14.8 km/h 28 % 0 in /  0.0 mm
14:42 90.9 °F /  32.7 °C 54.1 °F /  12.3 °C 30 in /  1015.8 hPa SE 4.6 mph /  7.4 km/h 4.6 mph /  7.4 km/h 29 % 0 in /  0.0 mm
14:47 91.6 °F /  33.1 °C 54 °F /  12.2 °C 30 in /  1015.8 hPa ESE 3.1 mph /  5.0 km/h 3.1 mph /  5.0 km/h 28 % 0 in /  0.0 mm
14:52 90 °F /  32.2 °C 52.5 °F /  11.4 °C 30 in /  1015.8 hPa SSE 5.8 mph /  9.3 km/h 5.8 mph /  9.3 km/h 28 % 0 in /  0.0 mm
14:57 90.9 °F /  32.7 °C 54.1 °F /  12.3 °C 30 in /  1015.8 hPa ESE 6.9 mph /  11.1 km/h 6.9 mph /  11.1 km/h 29 % 0 in /  0.0 mm
15:02 91.4 °F /  33.0 °C 54.7 °F /  12.6 °C 30 in /  1015.8 hPa ESE 6 mph /  9.7 km/h 6 mph /  9.7 km/h 29 % 0 in /  0.0 mm
15:07 91.9 °F /  33.3 °C 55 °F /  12.8 °C 30 in /  1015.8 hPa SSE 6.9 mph /  11.1 km/h 6.9 mph /  11.1 km/h 29 % 0 in /  0.0 mm
15:12 91.2 °F /  32.9 °C 54.5 °F /  12.5 °C 30 in /  1016.8 hPa SE 9.2 mph /  14.8 km/h 9.2 mph /  14.8 km/h 29 % 0 in /  0.0 mm
15:17 91.2 °F /  32.9 °C 54.5 °F /  12.5 °C 30 in /  1016.8 hPa ESE 10.4 mph /  16.7 km/h 10.4 mph /  16.7 km/h 29 % 0 in /  0.0 mm
15:19 90.1 °F /  32.3 °C 53.6 °F /  12.0 °C 30 in /  1016.8 hPa SSE 8.1 mph /  13.0 km/h 8.1 mph /  13.0 km/h 29 % 0 in /  0.0 mm
15:24 90 °F /  32.2 °C 52.5 °F /  11.4 °C 30 in /  1015.8 hPa East 8.1 mph /  13.0 km/h 8.1 mph /  13.0 km/h 28 % 0 in /  0.0 mm
15:25 90 °F /  32.2 °C 52.5 °F /  11.4 °C 30 in /  1015.8 hPa SSE 5.8 mph /  9.3 km/h 5.8 mph /  9.3 km/h 28 % 0 in /  0.0 mm
15:30 90.1 °F /  32.3 °C 52.5 °F /  11.4 °C 30 in /  1015.8 hPa ESE 9.2 mph /  14.8 km/h 9.2 mph /  14.8 km/h 28 % 0 in /  0.0 mm
15:35 89.8 °F /  32.1 °C 52.3 °F /  11.3 °C 30 in /  1015.8 hPa NE 5.8 mph /  9.3 km/h 5.8 mph /  9.3 km/h 28 % 0 in /  0.0 mm
15:40 90 °F /  32.2 °C 53.4 °F /  11.9 °C 30 in /  1015.8 hPa ENE 5.8 mph /  9.3 km/h 5.8 mph /  9.3 km/h 29 % 0 in /  0.0 mm
15:45 89.4 °F /  31.9 °C 53.1 °F /  11.7 °C 30 in /  1015.8 hPa SSE 10.4 mph /  16.7 km/h 10.4 mph /  16.7 km/h 29 % 0 in /  0.0 mm
15:50 90.1 °F /  32.3 °C 53.6 °F /  12.0 °C 30 in /  1015.8 hPa South 3.5 mph /  5.6 km/h 3.5 mph /  5.6 km/h 29 % 0 in /  0.0 mm
15:55 90.3 °F /  32.4 °C 53.8 °F /  12.1 °C 30 in /  1015.8 hPa SE 4.6 mph /  7.4 km/h 4.6 mph /  7.4 km/h 29 % 0 in /  0.0 mm
16:00 90.5 °F /  32.5 °C 54 °F /  12.2 °C 30 in /  1015.8 hPa South 8.1 mph /  13.0 km/h 8.1 mph /  13.0 km/h 29 % 0 in /  0.0 mm
16:05 90.7 °F /  32.6 °C 54.1 °F /  12.3 °C 30 in /  1015.8 hPa South 9.2 mph /  14.8 km/h 9.2 mph /  14.8 km/h 29 % 0 in /  0.0 mm
16:10 91.2 °F /  32.9 °C 54.5 °F /  12.5 °C 30 in /  1015.8 hPa East 5.8 mph /  9.3 km/h 5.8 mph /  9.3 km/h 29 % 0 in /  0.0 mm
16:15 91.4 °F /  33.0 °C 53.8 °F /  12.1 °C 30 in /  1015.8 hPa SSE 10.4 mph /  16.7 km/h 10.4 mph /  16.7 km/h 28 % 0 in /  0.0 mm
16:20 90.7 °F /  32.6 °C 53.1 °F /  11.7 °C 30 in /  1015.8 hPa SSE 11.5 mph /  18.5 km/h 11.5 mph /  18.5 km/h 28 % 0 in /  0.0 mm
16:25 91 °F /  32.8 °C 53.4 °F /  11.9 °C 30 in /  1015.8 hPa ESE 9.2 mph /  14.8 km/h 9.2 mph /  14.8 km/h 28 % 0 in /  0.0 mm
16:30 90.1 °F /  32.3 °C 51.6 °F /  10.9 °C 30 in /  1015.8 hPa ESE 8.1 mph /  13.0 km/h 8.1 mph /  13.0 km/h 27 % 0 in /  0.0 mm
16:35 90.3 °F /  32.4 °C 51.8 °F /  11.0 °C 30 in /  1015.8 hPa SE 6.4 mph /  10.3 km/h 6.4 mph /  10.3 km/h 27 % 0 in /  0.0 mm
16:40 90.3 °F /  32.4 °C 50.7 °F /  10.4 °C 30 in /  1015.8 hPa ESE 12.7 mph /  20.4 km/h 12.7 mph /  20.4 km/h 26 % 0 in /  0.0 mm
16:45 90.3 °F /  32.4 °C 50.7 °F /  10.4 °C 30 in /  1015.8 hPa NE 6.9 mph /  11.1 km/h 6.9 mph /  11.1 km/h 26 % 0 in /  0.0 mm
16:50 89.8 °F /  32.1 °C 50.4 °F /  10.2 °C 30 in /  1015.8 hPa ESE 8.1 mph /  13.0 km/h 8.1 mph /  13.0 km/h 26 % 0 in /  0.0 mm
16:55 90 °F /  32.2 °C 50.5 °F /  10.3 °C 30 in /  1015.8 hPa South 5.8 mph /  9.3 km/h 5.8 mph /  9.3 km/h 26 % 0 in /  0.0 mm
17:00 90.7 °F /  32.6 °C 51.1 °F /  10.6 °C 30 in /  1015.8 hPa SSE 4.6 mph /  7.4 km/h 4.6 mph /  7.4 km/h 26 % 0 in /  0.0 mm
17:05 90.5 °F /  32.5 °C 50.9 °F /  10.5 °C 30 in /  1015.8 hPa SSE 6.9 mph /  11.1 km/h 6.9 mph /  11.1 km/h 26 % 0 in /  0.0 mm
17:10 90.5 °F /  32.5 °C 50.9 °F /  10.5 °C 30 in /  1015.8 hPa South 7.6 mph /  12.2 km/h 7.6 mph /  12.2 km/h 26 % 0 in /  0.0 mm
17:15 90.7 °F /  32.6 °C 51.1 °F /  10.6 °C 30 in /  1015.8 hPa SE 6.9 mph /  11.1 km/h 6.9 mph /  11.1 km/h 26 % 0 in /  0.0 mm
17:20 90.7 °F /  32.6 °C 51.1 °F /  10.6 °C 30 in /  1015.8 hPa ESE 4.6 mph /  7.4 km/h 4.6 mph /  7.4 km/h 26 % 0 in /  0.0 mm
17:25 89.6 °F /  32.0 °C 50.2 °F /  10.1 °C 30 in /  1015.8 hPa South 5.8 mph /  9.3 km/h 5.8 mph /  9.3 km/h 26 % 0 in /  0.0 mm
17:30 89.4 °F /  31.9 °C 51.1 °F /  10.6 °C 30 in /  1015.8 hPa South 3.5 mph /  5.6 km/h 3.5 mph /  5.6 km/h 27 % 0 in /  0.0 mm
17:35 89.2 °F /  31.8 °C 50.9 °F /  10.5 °C 30 in /  1015.8 hPa East 5.9 mph /  9.5 km/h 5.9 mph /  9.5 km/h 27 % 0 in /  0.0 mm
17:40 89.2 °F /  31.8 °C 50.9 °F /  10.5 °C 30 in /  1015.8 hPa SSE 5.8 mph /  9.3 km/h 5.8 mph /  9.3 km/h 27 % 0 in /  0.0 mm
17:45 89.2 °F /  31.8 °C 50.9 °F /  10.5 °C 30 in /  1015.8 hPa ESE 3.5 mph /  5.6 km/h 3.5 mph /  5.6 km/h 27 % 0 in /  0.0 mm
17:50 88.5 °F /  31.4 °C 50.4 °F /  10.2 °C 30 in /  1015.8 hPa ENE 5.8 mph /  9.3 km/h 5.8 mph /  9.3 km/h 27 % 0 in /  0.0 mm
17:55 88.3 °F /  31.3 °C 50.2 °F /  10.1 °C 30 in /  1015.8 hPa ESE 9.2 mph /  14.8 km/h 9.2 mph /  14.8 km/h 27 % 0 in /  0.0 mm
18:00 88.3 °F /  31.3 °C 51.1 °F /  10.6 °C 30 in /  1015.8 hPa ESE 5.8 mph /  9.3 km/h 5.8 mph /  9.3 km/h 28 % 0 in /  0.0 mm
18:05 88.5 °F /  31.4 °C 50.4 °F /  10.2 °C 30 in /  1015.8 hPa SSE 6 mph /  9.7 km/h 6 mph /  9.7 km/h 27 % 0 in /  0.0 mm
18:10 88.9 °F /  31.6 °C 50.5 °F /  10.3 °C 30 in /  1015.8 hPa ESE 2.3 mph /  3.7 km/h 3.3 mph /  5.3 km/h 27 % 0 in /  0.0 mm
18:15 88.5 °F /  31.4 °C 50.4 °F /  10.2 °C 30 in /  1015.8 hPa SE 6.9 mph /  11.1 km/h 6.9 mph /  11.1 km/h 27 % 0 in /  0.0 mm
18:20 88.9 °F /  31.6 °C 50.5 °F /  10.3 °C 30 in /  1015.8 hPa SSE 3.5 mph /  5.6 km/h 3.5 mph /  5.6 km/h 27 % 0 in /  0.0 mm
18:25 88.9 °F /  31.6 °C 51.6 °F /  10.9 °C 30 in /  1015.8 hPa South 4.6 mph /  7.4 km/h 4.6 mph /  7.4 km/h 28 % 0 in /  0.0 mm
18:30 88.5 °F /  31.4 °C 50.4 °F /  10.2 °C 30 in /  1015.8 hPa SSW 5.8 mph /  9.3 km/h 5.8 mph /  9.3 km/h 27 % 0 in /  0.0 mm
18:35 88.9 °F /  31.6 °C 50.5 °F /  10.3 °C 30 in /  1015.8 hPa SE 4.6 mph /  7.4 km/h 4.6 mph /  7.4 km/h 27 % 0 in /  0.0 mm
18:40 88.7 °F /  31.5 °C 50.4 °F /  10.2 °C 30 in /  1015.8 hPa SSE 3.5 mph /  5.6 km/h 3.5 mph /  5.6 km/h 27 % 0 in /  0.0 mm
18:45 88.5 °F /  31.4 °C 50.4 °F /  10.2 °C 30 in /  1015.8 hPa East 5.8 mph /  9.3 km/h 5.8 mph /  9.3 km/h 27 % 0 in /  0.0 mm
18:50 88.2 °F /  31.2 °C 50 °F /  10.0 °C 30 in /  1015.8 hPa ESE 5.8 mph /  9.3 km/h 5.8 mph /  9.3 km/h 27 % 0 in /  0.0 mm
18:55 88 °F /  31.1 °C 49.8 °F /  9.9 °C 30 in /  1015.8 hPa NE 3.5 mph /  5.6 km/h 3.5 mph /  5.6 km/h 27 % 0 in /  0.0 mm
19:00 88.2 °F /  31.2 °C 50 °F /  10.0 °C 30 in /  1015.8 hPa ENE 4.6 mph /  7.4 km/h 4.6 mph /  7.4 km/h 27 % 0 in /  0.0 mm
19:05 88 °F /  31.1 °C 48.7 °F /  9.3 °C 30 in /  1015.8 hPa East 5.8 mph /  9.3 km/h 5.8 mph /  9.3 km/h 26 % 0 in /  0.0 mm
19:10 87.6 °F /  30.9 °C 49.5 °F /  9.7 °C 30 in /  1014.8 hPa East 4.6 mph /  7.4 km/h 4.6 mph /  7.4 km/h 27 % 0 in /  0.0 mm
19:15 87.8 °F /  31.0 °C 49.6 °F /  9.8 °C 30 in /  1014.8 hPa ENE 3.5 mph /  5.6 km/h 3.5 mph /  5.6 km/h 27 % 0 in /  0.0 mm
19:20 87.6 °F /  30.9 °C 49.5 °F /  9.7 °C 30 in /  1014.8 hPa NE 5.8 mph /  9.3 km/h 5.8 mph /  9.3 km/h 27 % 0 in /  0.0 mm
19:25 87.3 °F /  30.7 °C 50.2 °F /  10.1 °C 30 in /  1014.8 hPa NNE 5.8 mph /  9.3 km/h 5.8 mph /  9.3 km/h 28 % 0 in /  0.0 mm
19:30 87.1 °F /  30.6 °C 50 °F /  10.0 °C 30 in /  1014.8 hPa East 4.6 mph /  7.4 km/h 4.6 mph /  7.4 km/h 28 % 0 in /  0.0 mm
19:35 87.3 °F /  30.7 °C 50.2 °F /  10.1 °C 30 in /  1014.8 hPa ESE 5.8 mph /  9.3 km/h 5.8 mph /  9.3 km/h 28 % 0 in /  0.0 mm
19:40 86.9 °F /  30.5 °C 49.8 °F /  9.9 °C 30 in /  1014.8 hPa East 6.9 mph /  11.1 km/h 6.9 mph /  11.1 km/h 28 % 0 in /  0.0 mm
19:45 86.7 °F /  30.4 °C 49.6 °F /  9.8 °C 30 in /  1014.8 hPa ESE 5.8 mph /  9.3 km/h 5.8 mph /  9.3 km/h 28 % 0 in /  0.0 mm
19:50 86.5 °F /  30.3 °C 49.6 °F /  9.8 °C 30 in /  1014.8 hPa ESE 5.8 mph /  9.3 km/h 5.8 mph /  9.3 km/h 28 % 0 in /  0.0 mm
19:55 86.4 °F /  30.2 °C 50.4 °F /  10.2 °C 30 in /  1014.8 hPa East 7.6 mph /  12.2 km/h 7.6 mph /  12.2 km/h 29 % 0 in /  0.0 mm
20:00 86.4 °F /  30.2 °C 50.4 °F /  10.2 °C 30 in /  1014.8 hPa ESE 4.6 mph /  7.4 km/h 4.6 mph /  7.4 km/h 29 % 0 in /  0.0 mm
20:05 86 °F /  30.0 °C 50 °F /  10.0 °C 30 in /  1014.8 hPa ESE 5.8 mph /  9.3 km/h 5.8 mph /  9.3 km/h 29 % 0 in /  0.0 mm
20:10 86 °F /  30.0 °C 50 °F /  10.0 °C 30 in /  1014.8 hPa ENE 4.6 mph /  7.4 km/h 4.6 mph /  7.4 km/h 29 % 0 in /  0.0 mm
20:15 85.6 °F /  29.8 °C 49.6 °F /  9.8 °C 30 in /  1014.8 hPa ESE 5.8 mph /  9.3 km/h 5.8 mph /  9.3 km/h 29 % 0 in /  0.0 mm
20:20 85.6 °F /  29.8 °C 49.6 °F /  9.8 °C 30 in /  1014.8 hPa ESE 6.9 mph /  11.1 km/h 6.9 mph /  11.1 km/h 29 % 0 in /  0.0 mm
20:25 85.5 °F /  29.7 °C 49.6 °F /  9.8 °C 30 in /  1014.8 hPa ESE 5.8 mph /  9.3 km/h 5.8 mph /  9.3 km/h 29 % 0 in /  0.0 mm
20:30 85.1 °F /  29.5 °C 49.3 °F /  9.6 °C 30 in /  1014.8 hPa ESE 5.8 mph /  9.3 km/h 5.8 mph /  9.3 km/h 29 % 0 in /  0.0 mm
20:35 84.9 °F /  29.4 °C 50 °F /  10.0 °C 30 in /  1014.8 hPa ESE 4 mph /  6.4 km/h 4 mph /  6.4 km/h 30 % 0 in /  0.0 mm
20:40 84.7 °F /  29.3 °C 49.8 °F /  9.9 °C 29.9 in /  1013.8 hPa SSE 3.6 mph /  5.8 km/h 3.6 mph /  5.8 km/h 30 % 0 in /  0.0 mm
20:45 84.6 °F /  29.2 °C 49.6 °F /  9.8 °C 29.9 in /  1013.8 hPa NE 2.3 mph /  3.7 km/h 2.3 mph /  3.7 km/h 30 % 0 in /  0.0 mm
20:50 84.2 °F /  29.0 °C 49.5 °F /  9.7 °C 29.9 in /  1013.8 hPa East 5.8 mph /  9.3 km/h 5.8 mph /  9.3 km/h 30 % 0 in /  0.0 mm
20:55 84 °F /  28.9 °C 49.3 °F /  9.6 °C 29.9 in /  1013.8 hPa ENE 2.3 mph /  3.7 km/h 2.3 mph /  3.7 km/h 30 % 0 in /  0.0 mm
21:00 84 °F /  28.9 °C 49.3 °F /  9.6 °C 29.9 in /  1013.8 hPa ESE 4.6 mph /  7.4 km/h 4.6 mph /  7.4 km/h 30 % 0 in /  0.0 mm
21:05 83.8 °F /  28.8 °C 50 °F /  10.0 °C 29.9 in /  1013.8 hPa East 2.4 mph /  3.9 km/h 2.4 mph /  3.9 km/h 31 % 0 in /  0.0 mm
21:10 83.7 °F /  28.7 °C 49.8 °F /  9.9 °C 29.9 in /  1013.8 hPa East 4.6 mph /  7.4 km/h 4.6 mph /  7.4 km/h 31 % 0 in /  0.0 mm
21:15 83.5 °F /  28.6 °C 49.6 °F /  9.8 °C 29.9 in /  1013.8 hPa ESE 5.8 mph /  9.3 km/h 5.8 mph /  9.3 km/h 31 % 0 in /  0.0 mm
21:20 83.3 °F /  28.5 °C 49.5 °F /  9.7 °C 29.9 in /  1013.8 hPa East 3.5 mph /  5.6 km/h 3.5 mph /  5.6 km/h 31 % 0 in /  0.0 mm
21:25 83.1 °F /  28.4 °C 50.2 °F /  10.1 °C 29.9 in /  1013.8 hPa NE 3.5 mph /  5.6 km/h 3.5 mph /  5.6 km/h 32 % 0 in /  0.0 mm
21:30 82.8 °F /  28.2 °C 50.7 °F /  10.4 °C 29.9 in /  1013.8 hPa East 3.6 mph /  5.8 km/h 3.6 mph /  5.8 km/h 33 % 0 in /  0.0 mm
21:35 82.4 °F /  28.0 °C 51.3 °F /  10.7 °C 29.9 in /  1013.8 hPa ENE 4.6 mph /  7.4 km/h 4.6 mph /  7.4 km/h 34 % 0 in /  0.0 mm
21:40 82.2 °F /  27.9 °C 51.8 °F /  11.0 °C 29.9 in /  1013.8 hPa ENE 4.6 mph /  7.4 km/h 4.6 mph /  7.4 km/h 35 % 0 in /  0.0 mm
21:45 81.9 °F /  27.7 °C 52.3 °F /  11.3 °C 29.9 in /  1013.8 hPa ESE 3.5 mph /  5.6 km/h 3.5 mph /  5.6 km/h 36 % 0 in /  0.0 mm
21:50 81.3 °F /  27.4 °C 53.2 °F /  11.8 °C 29.9 in /  1013.8 hPa ENE 4.6 mph /  7.4 km/h 4.6 mph /  7.4 km/h 38 % 0 in /  0.0 mm
21:55 81 °F /  27.2 °C 53.8 °F /  12.1 °C 29.9 in /  1013.8 hPa ENE 4.6 mph /  7.4 km/h 4.6 mph /  7.4 km/h 39 % 0 in /  0.0 mm
22:00 80.8 °F /  27.1 °C 54.9 °F /  12.7 °C 29.9 in /  1013.8 hPa East 3.6 mph /  5.8 km/h 3.6 mph /  5.8 km/h 41 % 0 in /  0.0 mm
22:05 80.6 °F /  27.0 °C 55.4 °F /  13.0 °C 29.9 in /  1013.8 hPa ENE 3.5 mph /  5.6 km/h 3.5 mph /  5.6 km/h 42 % 0 in /  0.0 mm
22:10 80.2 °F /  26.8 °C 57 °F /  13.9 °C 29.9 in /  1012.8 hPa NE 3.5 mph /  5.6 km/h 3.5 mph /  5.6 km/h 45 % 0 in /  0.0 mm
22:15 79.9 °F /  26.6 °C 56.7 °F /  13.7 °C 29.9 in /  1012.8 hPa North 2.3 mph /  3.7 km/h 2.3 mph /  3.7 km/h 45 % 0 in /  0.0 mm
22:20 79.7 °F /  26.5 °C 56.5 °F /  13.6 °C 29.9 in /  1012.8 hPa NE 3.5 mph /  5.6 km/h 3.5 mph /  5.6 km/h 45 % 0 in /  0.0 mm
22:25 79.5 °F /  26.4 °C 56.8 °F /  13.8 °C 29.9 in /  1013.8 hPa NNE 3.5 mph /  5.6 km/h 3.5 mph /  5.6 km/h 46 % 0 in /  0.0 mm
22:30 79.2 °F /  26.2 °C 56.7 °F /  13.7 °C 29.9 in /  1013.8 hPa ENE 3.5 mph /  5.6 km/h 3.5 mph /  5.6 km/h 46 % 0 in /  0.0 mm
22:35 79.2 °F /  26.2 °C 57.2 °F /  14.0 °C 29.9 in /  1013.8 hPa NNE 3.5 mph /  5.6 km/h 3.5 mph /  5.6 km/h 47 % 0 in /  0.0 mm
22:40 79 °F /  26.1 °C 57 °F /  13.9 °C 29.9 in /  1013.8 hPa NNE 5.8 mph /  9.3 km/h 5.8 mph /  9.3 km/h 47 % 0 in /  0.0 mm
22:45 78.6 °F /  25.9 °C 57.4 °F /  14.1 °C 29.9 in /  1013.8 hPa NNE 5.8 mph /  9.3 km/h 5.8 mph /  9.3 km/h 48 % 0 in /  0.0 mm
22:50 78.4 °F /  25.8 °C 57 °F /  13.9 °C 29.9 in /  1013.8 hPa NNW 5.8 mph /  9.3 km/h 5.8 mph /  9.3 km/h 48 % 0 in /  0.0 mm
22:55 78.1 °F /  25.6 °C 56.8 °F /  13.8 °C 30 in /  1014.8 hPa NNE 5.8 mph /  9.3 km/h 5.8 mph /  9.3 km/h 48 % 0 in /  0.0 mm
23:00 78.1 °F /  25.6 °C 56.8 °F /  13.8 °C 30 in /  1014.8 hPa NE 3.5 mph /  5.6 km/h 3.5 mph /  5.6 km/h 48 % 0 in /  0.0 mm
23:05 77.9 °F /  25.5 °C 55.6 °F /  13.1 °C 30 in /  1014.8 hPa ENE 5.8 mph /  9.3 km/h 5.8 mph /  9.3 km/h 46 % 0 in /  0.0 mm
23:10 77.9 °F /  25.5 °C 54.9 °F /  12.7 °C 29.9 in /  1013.8 hPa NNE 6.2 mph /  10.0 km/h 6.2 mph /  10.0 km/h 45 % 0 in /  0.0 mm
23:15 77.9 °F /  25.5 °C 54.1 °F /  12.3 °C 29.9 in /  1013.8 hPa North 5.8 mph /  9.3 km/h 5.8 mph /  9.3 km/h 44 % 0 in /  0.0 mm
23:20 77.7 °F /  25.4 °C 53.4 °F /  11.9 °C 29.9 in /  1013.8 hPa ESE 4.6 mph /  7.4 km/h 4.6 mph /  7.4 km/h 43 % 0 in /  0.0 mm
23:25 77.9 °F /  25.5 °C 53.1 °F /  11.7 °C 29.9 in /  1012.8 hPa East 4.6 mph /  7.4 km/h 4.6 mph /  7.4 km/h 42 % 0 in /  0.0 mm
23:30 77.7 °F /  25.4 °C 52.9 °F /  11.6 °C 29.9 in /  1012.8 hPa ENE 5.8 mph /  9.3 km/h 5.8 mph /  9.3 km/h 42 % 0 in /  0.0 mm
23:35 77.7 °F /  25.4 °C 52.9 °F /  11.6 °C 29.9 in /  1012.8 hPa ESE 6.9 mph /  11.1 km/h 6.9 mph /  11.1 km/h 42 % 0 in /  0.0 mm
23:40 77.7 °F /  25.4 °C 52.9 °F /  11.6 °C 29.9 in /  1013.8 hPa East 5.8 mph /  9.3 km/h 5.8 mph /  9.3 km/h 42 % 0 in /  0.0 mm
23:45 77.5 °F /  25.3 °C 52.5 °F /  11.4 °C 29.9 in /  1013.8 hPa ENE 3.1 mph /  5.0 km/h 3.1 mph /  5.0 km/h 42 % 0 in /  0.0 mm
23:50 77.5 °F /  25.3 °C 52.5 °F /  11.4 °C 29.9 in /  1013.8 hPa ENE 2.3 mph /  3.7 km/h 2.3 mph /  3.7 km/h 42 % 0 in /  0.0 mm
23:55 77.5 °F /  25.3 °C 52.5 °F /  11.4 °C 29.9 in /  1013.8 hPa East 2.3 mph /  3.7 km/h 2.3 mph /  3.7 km/h 42 % 0 in /  0.0 mm
Meteo Sesrovires
Elogis d' Weather Underground - 3.5 mb

Guio original per  Jim McMurry - jmcmurry@mwt.net Adaptat per a la plantilla per  Wim van der Kuil - Leuven-Template.eu

Trobareu la nostra informacio del temps tambe a:

Weather Underground

AWEKAS